Time;durP1;ratioP1;P1;durP2;ratioP2;P2;SDS_P1;SDS_P2;PMS_P1;PMS_P2;Temp;Humidity;BMP_temperature;BMP_pressure;BME280_temperature;BME280_humidity;BME280_pressure;Samples;Min_cycle;Max_cycle;Signal;HPM_P1;HPM_P2
2022/03/13 00:00:49;;;;;;;1.83;1.70;;;8.30;99.90;;;;;;4917518;29;20494;-72
2022/03/13 00:03:17;;;;;;;3.60;3.40;;;8.30;99.90;;;;;;4915664;29;20443;-72
2022/03/13 00:05:44;;;;;;;1.53;1.20;;;8.30;99.90;;;;;;4916778;29;20899;-72
2022/03/13 00:08:23;;;;;;;1.83;1.73;;;8.30;99.90;;;;;;4916525;29;20424;-72
2022/03/13 00:10:55;;;;;;;1.07;0.97;;;8.30;99.90;;;;;;4931467;28;20416;-72
2022/03/13 00:13:22;;;;;;;3.33;1.90;;;8.20;99.90;;;;;;4916898;29;20431;-72
2022/03/13 00:15:51;;;;;;;1.97;1.17;;;8.20;99.90;;;;;;4916642;29;20419;-72
2022/03/13 00:18:17;;;;;;;1.13;1.03;;;8.10;99.90;;;;;;4916672;29;20953;-72
2022/03/13 00:20:43;;;;;;;1.17;1.07;;;8.00;99.90;;;;;;4931088;28;20510;-72
2022/03/13 00:23:09;;;;;;;4.27;1.60;;;8.00;99.90;;;;;;4916690;29;21021;-72
2022/03/13 00:25:34;;;;;;;0.93;0.80;;;7.90;99.90;;;;;;4931252;28;20212;-72
2022/03/13 00:28:00;;;;;;;3.03;1.47;;;7.80;99.90;;;;;;4916326;29;20202;-72
2022/03/13 00:30:25;;;;;;;1.30;0.90;;;7.70;99.90;;;;;;4916443;29;20180;-72
2022/03/13 00:32:51;;;;;;;0.90;0.90;;;7.60;99.90;;;;;;4931069;28;20186;-72
2022/03/13 00:35:17;;;;;;;0.87;0.73;;;7.60;99.90;;;;;;4916589;29;20255;-72
2022/03/13 00:37:42;;;;;;;0.80;0.67;;;7.50;99.90;;;;;;4915691;29;20203;-71
2022/03/13 00:40:10;;;;;;;1.57;1.47;;;7.40;99.90;;;;;;4916609;29;20164;-72
2022/03/13 00:42:36;;;;;;;2.50;1.17;;;7.40;99.90;;;;;;4916452;29;20168;-72
2022/03/13 00:45:02;;;;;;;2.53;2.33;;;7.30;99.90;;;;;;4916325;29;20447;-71
2022/03/13 00:47:28;;;;;;;2.30;1.23;;;7.20;99.90;;;;;;4916199;29;20432;-72
2022/03/13 00:49:53;;;;;;;0.70;0.50;;;7.10;99.90;;;;;;4916248;29;20174;-72
2022/03/13 00:52:19;;;;;;;2.13;1.00;;;7.10;99.90;;;;;;4930867;28;20175;-72
2022/03/13 00:54:45;;;;;;;1.90;1.80;;;7.00;99.90;;;;;;4930706;28;20195;-71
2022/03/13 00:57:10;;;;;;;1.10;1.00;;;6.90;99.90;;;;;;4916255;29;20176;-72
2022/03/13 00:59:36;;;;;;;1.67;1.57;;;6.90;99.90;;;;;;4930995;28;20207;-72
2022/03/13 01:02:02;;;;;;;1.27;1.17;;;6.80;99.90;;;;;;4918468;29;20730;-71
2022/03/13 01:04:28;;;;;;;0.90;0.90;;;6.80;99.90;;;;;;4919615;29;20274;-72
2022/03/13 01:06:53;;;;;;;1.13;1.00;;;6.80;99.90;;;;;;4919480;29;20440;-72
2022/03/13 01:09:19;;;;;;;1.40;1.30;;;6.70;99.90;;;;;;4918422;29;20744;-71
2022/03/13 01:11:44;;;;;;;1.63;1.53;;;6.70;99.90;;;;;;4919386;29;20194;-72
2022/03/13 01:14:11;;;;;;;12.47;1.50;;;6.70;99.90;;;;;;4918937;29;20568;-72
2022/03/13 01:16:39;;;;;;;1.50;0.80;;;6.70;99.90;;;;;;4919313;29;20195;-71
2022/03/13 01:19:05;;;;;;;1.53;1.43;;;6.60;99.90;;;;;;4919411;29;20539;-72
2022/03/13 01:21:34;;;;;;;1.47;1.37;;;6.60;99.90;;;;;;4919189;29;20427;-71
2022/03/13 01:23:59;;;;;;;0.70;0.60;;;6.60;99.90;;;;;;4918094;28;20886;-72
2022/03/13 01:26:25;;;;;;;1.23;1.03;;;6.50;99.90;;;;;;4934039;29;20502;-71
2022/03/13 01:28:55;;;;;;;1.97;1.87;;;6.50;99.90;;;;;;4919102;29;20168;-72
2022/03/13 01:31:24;;;;;;;0.70;0.50;;;6.50;99.90;;;;;;4919298;29;20202;-72
2022/03/13 01:33:49;;;;;;;1.83;1.20;;;6.40;99.90;;;;;;4917473;29;20577;-72
2022/03/13 01:36:15;;;;;;;2.20;1.63;;;6.40;99.90;;;;;;4919388;29;20420;-71
2022/03/13 01:38:41;;;;;;;1.43;1.33;;;6.30;99.90;;;;;;4919042;29;20200;-72
2022/03/13 01:41:07;;;;;;;0.97;0.87;;;6.30;99.90;;;;;;4919159;29;20271;-72
2022/03/13 01:43:33;;;;;;;0.97;0.87;;;6.30;99.90;;;;;;4919021;29;20231;-72
2022/03/13 01:46:00;;;;;;;2.70;1.80;;;6.20;99.90;;;;;;4917677;29;20769;-72
2022/03/13 01:48:26;;;;;;;2.37;2.17;;;6.20;99.90;;;;;;4918799;29;20423;-71
2022/03/13 01:50:52;;;;;;;0.93;0.93;;;6.10;99.90;;;;;;4919020;29;20443;-72
2022/03/13 01:53:20;;;;;;;3.53;1.90;;;6.10;99.90;;;;;;4918835;29;20436;-72
2022/03/13 01:55:46;;;;;;;0.87;0.60;;;6.00;99.90;;;;;;4918809;29;20435;-72
2022/03/13 01:58:12;;;;;;;0.70;0.50;;;6.00;99.90;;;;;;4918238;29;20483;-71
2022/03/13 02:00:38;;;;;;;0.80;0.70;;;6.00;99.90;;;;;;4919087;29;20422;-72
2022/03/13 02:03:04;;;;;;;1.40;1.17;;;6.00;99.90;;;;;;4933115;28;20227;-72
2022/03/13 02:05:34;;;;;;;0.70;0.50;;;5.90;99.90;;;;;;4918693;29;20475;-71
2022/03/13 02:08:05;;;;;;;2.30;2.20;;;6.00;99.90;;;;;;4918151;29;20257;-72
2022/03/13 02:10:31;;;;;;;1.93;1.60;;;5.90;99.90;;;;;;4918406;29;20424;-72
2022/03/13 02:12:57;;;;;;;1.17;1.03;;;5.90;99.90;;;;;;4917691;29;20941;-71
2022/03/13 02:15:30;;;;;;;0.80;0.67;;;5.90;99.90;;;;;;4918336;29;20422;-72
2022/03/13 02:17:56;;;;;;;1.23;1.13;;;5.90;99.90;;;;;;4918496;29;20194;-72
2022/03/13 02:20:26;;;;;;;1.53;0.90;;;5.80;99.90;;;;;;4918226;29;20432;-71
2022/03/13 02:22:58;;;;;;;1.03;0.93;;;5.80;99.90;;;;;;4917071;29;20172;-72
2022/03/13 02:25:24;;;;;;;1.67;1.57;;;5.80;99.90;;;;;;4918373;29;20412;-71
2022/03/13 02:27:50;;;;;;;0.80;0.60;;;5.70;99.90;;;;;;4918102;29;20456;-72
2022/03/13 02:30:15;;;;;;;0.70;0.60;;;5.70;99.90;;;;;;4918201;29;20180;-71
2022/03/13 02:32:41;;;;;;;0.80;0.63;;;5.70;99.90;;;;;;4918123;29;20183;-71
2022/03/13 02:35:08;;;;;;;0.80;0.60;;;5.60;99.90;;;;;;4918226;29;20218;-72
2022/03/13 02:37:39;;;;;;;0.70;0.50;;;5.60;99.90;;;;;;4917838;29;20172;-71
2022/03/13 02:40:06;;;;;;;0.70;0.60;;;5.60;99.90;;;;;;4918408;29;20743;-72
2022/03/13 02:42:32;;;;;;;1.53;0.97;;;5.60;99.90;;;;;;4917991;29;20430;-72
2022/03/13 02:44:58;;;;;;;1.30;0.87;;;5.60;99.90;;;;;;4917925;29;20420;-72
2022/03/13 02:47:23;;;;;;;0.90;0.80;;;5.60;99.90;;;;;;4917720;29;20171;-72
2022/03/13 02:49:49;;;;;;;1.07;0.97;;;5.60;99.90;;;;;;4917919;29;20396;-72
2022/03/13 02:52:14;;;;;;;1.00;0.90;;;5.60;99.90;;;;;;4917746;29;20258;-72
2022/03/13 02:54:40;;;;;;;1.27;1.17;;;5.60;99.90;;;;;;4917401;29;20263;-72
2022/03/13 02:57:06;;;;;;;3.43;3.03;;;5.60;99.90;;;;;;4917502;29;20186;-72
2022/03/13 02:59:32;;;;;;;0.80;0.80;;;5.60;99.90;;;;;;4917952;29;20688;-72
2022/03/13 03:02:00;;;;;;;1.37;1.27;;;5.60;99.90;;;;;;4917964;29;20762;-72
2022/03/13 03:04:25;;;;;;;1.00;0.90;;;5.60;99.90;;;;;;4917652;29;20223;-72
2022/03/13 03:07:01;;;;;;;0.70;0.50;;;5.60;99.90;;;;;;4917065;29;20491;-72
2022/03/13 03:09:32;;;;;;;3.50;3.30;;;5.60;99.90;;;;;;4917699;29;20179;-72
2022/03/13 03:12:00;;;;;;;0.70;0.50;;;5.60;99.90;;;;;;4917836;29;20771;-72
2022/03/13 03:14:28;;;;;;;1.00;0.77;;;5.60;99.90;;;;;;4916275;29;20459;-72
2022/03/13 03:16:54;;;;;;;0.70;0.60;;;5.60;99.90;;;;;;4917136;29;20424;-71
2022/03/13 03:19:20;;;;;;;0.83;0.83;;;5.60;99.90;;;;;;4917364;29;20513;-71
2022/03/13 03:21:46;;;;;;;0.70;0.63;;;5.60;99.90;;;;;;4917201;29;20407;-71
2022/03/13 03:24:18;;;;;;;1.37;0.90;;;5.70;99.90;;;;;;4915664;29;20435;-71
2022/03/13 03:26:44;;;;;;;1.60;1.50;;;5.70;99.90;;;;;;4917090;29;20227;-72
2022/03/13 03:29:10;;;;;;;1.10;1.00;;;5.70;99.90;;;;;;4916931;29;20814;-72
2022/03/13 03:31:41;;;;;;;1.30;1.20;;;5.70;99.90;;;;;;4898826;29;20427;-72
2022/03/13 03:34:12;;;;;;;0.70;0.50;;;5.70;99.90;;;;;;4899061;29;20499;-72
2022/03/13 03:36:43;;;;;;;1.17;1.07;;;5.70;99.90;;;;;;4897977;29;20432;-72
2022/03/13 03:39:09;;;;;;;1.83;1.73;;;5.70;99.90;;;;;;4912911;29;20464;-72
2022/03/13 03:41:35;;;;;;;0.77;0.67;;;5.70;99.90;;;;;;4916807;29;20897;-72
2022/03/13 03:44:01;;;;;;;1.40;1.30;;;5.70;99.90;;;;;;4918007;29;20428;-72
2022/03/13 03:46:26;;;;;;;1.17;0.80;;;5.60;99.90;;;;;;4917562;29;20233;-72
2022/03/13 03:48:52;;;;;;;5.43;0.93;;;5.60;99.90;;;;;;4917493;29;20224;-72
2022/03/13 03:51:17;;;;;;;2.40;2.20;;;5.50;99.90;;;;;;4917415;29;20203;-72
2022/03/13 03:53:43;;;;;;;0.70;0.60;;;5.50;99.90;;;;;;4917756;29;20743;-72
2022/03/13 03:56:09;;;;;;;0.70;0.50;;;5.50;99.90;;;;;;4931886;28;20543;-71
2022/03/13 03:58:34;;;;;;;2.37;2.00;;;5.50;99.90;;;;;;4916945;29;20203;-72
2022/03/13 04:01:00;;;;;;;0.93;0.83;;;5.50;99.90;;;;;;4917516;29;20251;-72
2022/03/13 04:03:25;;;;;;;1.07;0.80;;;5.50;99.90;;;;;;4916066;29;20230;-72
2022/03/13 04:05:51;;;;;;;0.70;0.50;;;5.60;99.90;;;;;;4917139;29;20164;-71
2022/03/13 04:08:17;;;;;;;0.80;0.80;;;5.50;99.90;;;;;;4931038;29;20191;-72
2022/03/13 04:10:43;;;;;;;1.50;1.40;;;5.60;99.90;;;;;;4917131;29;20259;-72
2022/03/13 04:13:08;;;;;;;4.00;0.93;;;5.60;99.90;;;;;;4917079;29;20470;-72
2022/03/13 04:15:34;;;;;;;0.77;0.70;;;5.50;99.90;;;;;;4917074;29;20183;-72
2022/03/13 04:17:59;;;;;;;12.43;1.63;;;5.50;99.90;;;;;;4916280;29;20230;-72
2022/03/13 04:20:25;;;;;;;1.00;0.80;;;5.60;99.90;;;;;;4916831;29;20168;-72
2022/03/13 04:22:51;;;;;;;0.80;0.70;;;5.60;99.90;;;;;;4917111;29;20653;-72
2022/03/13 04:25:17;;;;;;;0.80;0.60;;;5.60;99.90;;;;;;4917389;29;20418;-72
2022/03/13 04:27:44;;;;;;;0.83;0.80;;;5.70;99.90;;;;;;4916872;29;20254;-72
2022/03/13 04:30:10;;;;;;;0.80;0.60;;;5.80;99.90;;;;;;4917098;29;20404;-72
2022/03/13 04:32:35;;;;;;;0.70;0.50;;;5.80;99.90;;;;;;4917182;29;20495;-72
2022/03/13 04:35:01;;;;;;;4.63;1.17;;;5.90;99.90;;;;;;4917272;29;20458;-72
2022/03/13 04:37:27;;;;;;;1.43;1.33;;;5.90;99.90;;;;;;4934768;29;20235;-72
2022/03/13 04:39:53;;;;;;;0.73;0.60;;;6.00;99.90;;;;;;4920730;29;20231;-72
2022/03/13 04:42:19;;;;;;;2.30;2.20;;;6.00;99.90;;;;;;4920711;29;20404;-72
2022/03/13 04:44:46;;;;;;;1.30;1.20;;;6.10;99.90;;;;;;4921577;29;20557;-74
2022/03/13 04:47:11;;;;;;;1.27;1.17;;;6.10;99.90;;;;;;4920476;29;20222;-72
2022/03/13 04:49:37;;;;;;;1.47;1.03;;;6.20;99.90;;;;;;4920553;29;20463;-72
2022/03/13 04:52:04;;;;;;;3.57;0.80;;;6.20;99.90;;;;;;4920198;29;20172;-72
2022/03/13 04:54:30;;;;;;;1.20;0.83;;;6.30;99.90;;;;;;4920235;29;20206;-72
2022/03/13 04:56:56;;;;;;;1.47;1.37;;;6.30;99.90;;;;;;4921951;29;20432;-74
2022/03/13 04:59:21;;;;;;;0.83;0.73;;;6.40;99.90;;;;;;4935543;29;20298;-72
2022/03/13 05:01:47;;;;;;;0.80;0.60;;;6.40;99.90;;;;;;4920461;29;20324;-72
2022/03/13 05:04:13;;;;;;;0.80;0.80;;;6.50;99.90;;;;;;4920176;29;20246;-72
2022/03/13 05:06:40;;;;;;;0.87;0.80;;;6.50;99.90;;;;;;4920137;29;20175;-72
2022/03/13 05:09:06;;;;;;;1.00;0.90;;;6.60;99.90;;;;;;4919798;29;20322;-72
2022/03/13 05:11:32;;;;;;;0.70;0.50;;;6.60;99.90;;;;;;4919944;29;20408;-72
2022/03/13 05:13:58;;;;;;;0.70;0.50;;;6.70;99.90;;;;;;4919095;29;20443;-72
2022/03/13 05:16:23;;;;;;;0.70;0.50;;;6.70;99.90;;;;;;4934682;28;20475;-72
2022/03/13 05:18:49;;;;;;;0.80;0.70;;;6.80;99.90;;;;;;4919319;29;20286;-72
2022/03/13 05:21:15;;;;;;;1.17;1.07;;;6.80;99.90;;;;;;4920444;29;20178;-72
2022/03/13 05:23:41;;;;;;;0.80;0.80;;;6.80;99.90;;;;;;4920242;29;20196;-72
2022/03/13 05:26:06;;;;;;;5.30;1.50;;;6.90;99.90;;;;;;4918968;29;20426;-72
2022/03/13 05:28:32;;;;;;;1.73;1.57;;;6.90;99.90;;;;;;4920095;29;20275;-72
2022/03/13 05:30:58;;;;;;;0.80;0.60;;;7.00;99.10;;;;;;4920173;29;20307;-72
2022/03/13 05:33:23;;;;;;;0.80;0.70;;;7.00;98.20;;;;;;4920644;29;20949;-72
2022/03/13 05:35:49;;;;;;;1.43;0.90;;;7.10;96.80;;;;;;4934996;28;20195;-72
2022/03/13 05:38:14;;;;;;;1.30;1.10;;;7.10;95.60;;;;;;4919772;29;20239;-72
2022/03/13 05:40:41;;;;;;;1.10;1.00;;;7.10;94.20;;;;;;4920311;29;20172;-72
2022/03/13 05:43:06;;;;;;;0.80;0.60;;;7.20;93.30;;;;;;4920030;29;20197;-72
2022/03/13 05:45:32;;;;;;;2.53;2.33;;;7.20;92.90;;;;;;4934853;28;20498;-72
2022/03/13 05:48:09;;;;;;;0.70;0.50;;;7.20;92.10;;;;;;4933716;29;20184;-72
2022/03/13 05:50:35;;;;;;;0.80;0.70;;;7.20;92.10;;;;;;4919953;29;20175;-72
2022/03/13 05:53:01;;;;;;;8.10;1.43;;;7.20;91.40;;;;;;4919929;29;20454;-72
2022/03/13 05:55:27;;;;;;;2.13;2.03;;;7.30;90.70;;;;;;4919959;29;20247;-72
2022/03/13 05:57:54;;;;;;;1.00;0.90;;;7.30;90.00;;;;;;4919389;29;20514;-72
2022/03/13 06:00:23;;;;;;;0.80;0.70;;;7.30;90.30;;;;;;4919720;29;20207;-72
2022/03/13 06:02:49;;;;;;;1.10;1.00;;;7.30;90.30;;;;;;4919417;29;20572;-72
2022/03/13 06:05:17;;;;;;;0.70;0.50;;;7.30;90.80;;;;;;4918851;29;20416;-72
2022/03/13 06:07:44;;;;;;;0.80;0.80;;;7.30;91.20;;;;;;4919080;29;20443;-72
2022/03/13 06:10:10;;;;;;;0.80;0.70;;;7.30;91.20;;;;;;4919733;29;20459;-72
2022/03/13 06:12:36;;;;;;;2.30;1.90;;;7.30;90.90;;;;;;4919602;29;20404;-72
2022/03/13 06:15:04;;;;;;;0.90;0.80;;;7.30;90.80;;;;;;4919399;29;20168;-72
2022/03/13 06:17:30;;;;;;;1.20;1.10;;;7.30;90.70;;;;;;4933543;29;20947;-72
2022/03/13 06:19:56;;;;;;;1.07;0.97;;;7.40;91.00;;;;;;4933414;28;20542;-71
2022/03/13 06:22:24;;;;;;;1.17;1.07;;;7.40;91.00;;;;;;4917796;29;20199;-71
2022/03/13 06:24:50;;;;;;;1.27;1.03;;;7.40;91.00;;;;;;4917345;29;20507;-72
2022/03/13 06:27:16;;;;;;;0.70;0.50;;;7.40;91.00;;;;;;4930165;28;21107;-72
2022/03/13 06:29:42;;;;;;;1.73;1.13;;;7.40;90.90;;;;;;4900560;29;20177;-72
2022/03/13 06:32:07;;;;;;;2.60;1.00;;;7.40;90.80;;;;;;4900527;29;20420;-72
2022/03/13 06:34:34;;;;;;;2.20;1.43;;;7.50;90.80;;;;;;4900655;29;20199;-72
2022/03/13 06:37:00;;;;;;;1.03;0.93;;;7.50;91.00;;;;;;4902624;29;20547;-72
2022/03/13 06:39:25;;;;;;;0.70;0.50;;;7.50;91.20;;;;;;4917985;29;20474;-72
2022/03/13 06:41:51;;;;;;;0.80;0.60;;;7.50;91.60;;;;;;4919376;29;20419;-72
2022/03/13 06:44:17;;;;;;;0.80;0.70;;;7.50;91.60;;;;;;4917670;29;20200;-72
2022/03/13 06:46:43;;;;;;;3.70;1.80;;;7.50;91.60;;;;;;4919080;29;20424;-72
2022/03/13 06:49:09;;;;;;;7.47;3.93;;;7.50;91.40;;;;;;4918284;29;20428;-72
2022/03/13 06:51:37;;;;;;;1.53;0.60;;;7.60;91.40;;;;;;4918635;29;20411;-72
2022/03/13 06:54:03;;;;;;;5.43;2.40;;;7.60;91.20;;;;;;4918802;29;20468;-72
2022/03/13 06:56:29;;;;;;;0.70;0.50;;;7.70;91.00;;;;;;4918881;29;20426;-73
2022/03/13 06:58:58;;;;;;;1.70;1.60;;;7.70;90.90;;;;;;4917591;29;20914;-72
2022/03/13 07:01:24;;;;;;;1.07;1.00;;;7.80;90.60;;;;;;4931851;29;20171;-71
2022/03/13 07:03:50;;;;;;;2.57;2.47;;;7.80;90.20;;;;;;4917152;29;20424;-71
2022/03/13 07:06:15;;;;;;;0.97;0.67;;;7.90;90.20;;;;;;4917351;29;20588;-71
2022/03/13 07:08:41;;;;;;;1.53;1.43;;;7.90;89.30;;;;;;4917161;29;20202;-72
2022/03/13 07:11:06;;;;;;;0.80;0.70;;;8.00;88.00;;;;;;4917465;29;20545;-72
2022/03/13 07:13:32;;;;;;;3.43;2.20;;;8.10;87.50;;;;;;4916777;29;20195;-72
2022/03/13 07:16:03;;;;;;;2.33;1.77;;;8.20;87.50;;;;;;4933357;29;20179;-72
2022/03/13 07:18:31;;;;;;;0.97;0.70;;;8.30;87.40;;;;;;4918662;29;20514;-72
2022/03/13 07:20:57;;;;;;;0.80;0.70;;;8.40;86.80;;;;;;4918686;29;20404;-72
2022/03/13 07:23:23;;;;;;;0.70;0.50;;;8.50;85.90;;;;;;4918114;29;20431;-72
2022/03/13 07:25:49;;;;;;;1.00;0.90;;;8.60;84.90;;;;;;4917946;29;20544;-72
2022/03/13 07:28:15;;;;;;;1.03;0.93;;;8.70;83.80;;;;;;4916976;29;20966;-72
2022/03/13 07:30:41;;;;;;;1.77;1.27;;;8.80;81.70;;;;;;4917803;29;20414;-72
2022/03/13 07:33:07;;;;;;;1.63;1.50;;;8.90;80.70;;;;;;4917509;29;20510;-72
2022/03/13 07:35:32;;;;;;;1.83;1.70;;;9.00;79.20;;;;;;4917369;29;20603;-72
2022/03/13 07:37:58;;;;;;;2.83;1.23;;;9.10;79.30;;;;;;4917131;29;20636;-72
2022/03/13 07:40:23;;;;;;;2.23;1.63;;;9.20;79.70;;;;;;4917282;29;20258;-72
2022/03/13 07:42:49;;;;;;;0.80;0.57;;;9.30;79.20;;;;;;4917534;29;20657;-72
2022/03/13 07:45:15;;;;;;;1.53;1.43;;;9.30;78.90;;;;;;4917416;29;20168;-72
2022/03/13 07:47:41;;;;;;;0.80;0.60;;;9.40;77.80;;;;;;4917072;29;20163;-72
2022/03/13 07:50:08;;;;;;;1.10;0.77;;;9.50;77.80;;;;;;4931519;28;20435;-72
2022/03/13 07:52:34;;;;;;;0.83;0.83;;;9.50;75.40;;;;;;4917437;29;20175;-72
2022/03/13 07:54:59;;;;;;;1.00;0.90;;;9.60;75.30;;;;;;4917041;29;20450;-72
2022/03/13 07:57:25;;;;;;;1.23;1.00;;;9.60;73.60;;;;;;4917084;29;20411;-72
2022/03/13 07:59:51;;;;;;;1.83;1.73;;;9.60;73.80;;;;;;4917355;29;20204;-72
2022/03/13 08:02:18;;;;;;;1.30;1.20;;;9.70;74.10;;;;;;4917816;29;20179;-72
2022/03/13 08:04:43;;;;;;;4.10;1.50;;;9.80;71.10;;;;;;4932426;28;20191;-72
2022/03/13 08:07:09;;;;;;;1.67;1.30;;;10.10;70.80;;;;;;4917818;29;20404;-72
2022/03/13 08:09:35;;;;;;;1.73;1.63;;;10.40;69.90;;;;;;4917690;29;20183;-72
2022/03/13 08:12:01;;;;;;;0.90;0.73;;;10.50;68.70;;;;;;4921541;29;20721;-72
2022/03/13 08:14:27;;;;;;;1.27;1.17;;;10.60;67.00;;;;;;4920860;29;20841;-72
2022/03/13 08:16:53;;;;;;;2.40;2.00;;;10.70;66.50;;;;;;4921260;29;20467;-72
2022/03/13 08:19:18;;;;;;;2.07;1.33;;;10.80;64.70;;;;;;4921584;29;20234;-72
2022/03/13 08:21:44;;;;;;;1.50;1.33;;;10.80;63.70;;;;;;4922184;29;20251;-72
2022/03/13 08:24:10;;;;;;;1.43;1.23;;;10.80;62.50;;;;;;4919214;29;20196;-71
2022/03/13 08:26:39;;;;;;;1.17;1.07;;;10.90;61.60;;;;;;4919113;29;20500;-72
2022/03/13 08:29:08;;;;;;;1.40;1.30;;;10.90;61.30;;;;;;4918928;29;20414;-72
2022/03/13 08:31:35;;;;;;;2.60;2.40;;;11.00;61.30;;;;;;4919231;29;20418;-72
2022/03/13 08:34:08;;;;;;;1.00;0.80;;;11.30;60.90;;;;;;4919364;29;20471;-71
2022/03/13 08:36:38;;;;;;;1.30;1.20;;;11.80;61.00;;;;;;4920469;29;20418;-72
2022/03/13 08:39:04;;;;;;;3.53;0.80;;;12.60;58.50;;;;;;4919601;29;20506;-72
2022/03/13 08:41:30;;;;;;;5.13;1.90;;;13.60;57.00;;;;;;4918507;29;20424;-72
2022/03/13 08:43:56;;;;;;;2.43;1.90;;;14.50;54.00;;;;;;4919436;29;20568;-72
2022/03/13 08:46:23;;;;;;;3.73;1.97;;;15.20;52.60;;;;;;4920462;29;20172;-72
2022/03/13 08:48:49;;;;;;;2.17;1.97;;;15.70;51.30;;;;;;4919597;29;20175;-72
2022/03/13 08:51:15;;;;;;;2.40;1.47;;;15.90;49.60;;;;;;4919470;29;20431;-72
2022/03/13 08:53:41;;;;;;;2.40;1.70;;;16.10;49.10;;;;;;4933583;29;21191;-72
2022/03/13 08:56:07;;;;;;;1.20;1.10;;;16.20;48.20;;;;;;4933809;29;20483;-72
2022/03/13 08:58:33;;;;;;;1.17;1.07;;;16.00;47.80;;;;;;4918849;29;20451;-72
2022/03/13 09:01:00;;;;;;;2.80;1.80;;;15.80;47.20;;;;;;4918951;29;20467;-72
2022/03/13 09:03:28;;;;;;;1.40;1.30;;;15.60;46.90;;;;;;4918853;29;20199;-72
2022/03/13 09:05:54;;;;;;;1.10;1.00;;;15.40;46.30;;;;;;4919314;29;20411;-72
2022/03/13 09:08:20;;;;;;;1.43;0.97;;;15.10;46.80;;;;;;4918800;29;20548;-72
2022/03/13 09:10:46;;;;;;;2.70;2.50;;;14.90;46.60;;;;;;4919038;29;20766;-72
2022/03/13 09:13:13;;;;;;;4.43;1.70;;;14.70;47.50;;;;;;4919053;29;20728;-72
2022/03/13 09:15:39;;;;;;;1.33;1.23;;;14.60;47.20;;;;;;4929855;28;20184;-71
2022/03/13 09:18:05;;;;;;;7.83;2.67;;;14.40;47.10;;;;;;4899585;29;20467;-72
2022/03/13 09:20:31;;;;;;;1.33;1.13;;;14.20;47.70;;;;;;4899745;29;20412;-71
2022/03/13 09:22:57;;;;;;;1.27;1.17;;;14.10;48.20;;;;;;4901855;29;20443;-71
2022/03/13 09:25:23;;;;;;;1.70;1.60;;;13.90;48.30;;;;;;4905261;29;20176;-71
2022/03/13 09:27:49;;;;;;;0.80;0.70;;;13.80;48.50;;;;;;4918093;29;20415;-72
2022/03/13 09:30:15;;;;;;;6.07;2.00;;;13.70;48.20;;;;;;4916986;29;20186;-72
2022/03/13 09:32:42;;;;;;;1.90;1.20;;;13.90;48.90;;;;;;4918483;29;20412;-72
2022/03/13 09:35:08;;;;;;;3.03;1.30;;;14.10;49.00;;;;;;4918667;29;20174;-72
2022/03/13 09:37:33;;;;;;;1.83;1.37;;;14.30;49.10;;;;;;4918022;29;20489;-72
2022/03/13 09:39:59;;;;;;;4.83;1.63;;;14.50;48.40;;;;;;4918438;29;20905;-72
2022/03/13 09:42:25;;;;;;;3.53;2.70;;;14.90;48.60;;;;;;4918942;29;20182;-72
2022/03/13 09:44:50;;;;;;;3.10;1.87;;;15.20;47.90;;;;;;4918039;29;20428;-71
2022/03/13 09:47:16;;;;;;;2.17;1.63;;;15.40;47.70;;;;;;4918420;29;20200;-72
2022/03/13 09:49:42;;;;;;;5.13;1.97;;;15.70;47.90;;;;;;4918246;29;20180;-71
2022/03/13 09:52:08;;;;;;;1.60;1.30;;;16.40;47.90;;;;;;4918951;29;20180;-72
2022/03/13 09:54:34;;;;;;;5.17;3.63;;;17.70;47.90;;;;;;4919212;29;20503;-72
2022/03/13 09:57:02;;;;;;;4.90;3.57;;;19.50;46.10;;;;;;4919260;29;20453;-70
2022/03/13 09:59:28;;;;;;;3.10;2.20;;;21.40;43.40;;;;;;4919130;29;20969;-70
2022/03/13 10:01:53;;;;;;;2.87;2.60;;;23.40;43.20;;;;;;4920076;29;20462;-70
2022/03/13 10:04:19;;;;;;;4.60;2.17;;;24.90;40.90;;;;;;4920017;29;20183;-70
2022/03/13 10:07:12;;;;;;;2.90;1.73;;;26.40;37.00;;;;;;4918273;29;20180;-70
2022/03/13 10:09:40;;;;;;;3.87;2.43;;;27.60;35.20;;;;;;4919003;29;20202;-70
2022/03/13 10:12:14;;;;;;;3.80;3.50;;;28.80;33.60;;;;;;4917332;29;20419;-70
2022/03/13 10:15:04;;;;;;;3.87;2.40;;;29.90;32.30;;;;;;4918409;29;20821;-70
2022/03/13 10:17:32;;;;;;;7.63;3.37;;;31.00;30.80;;;;;;4919031;29;20404;-70
2022/03/13 10:20:23;;;;;;;3.20;2.77;;;31.80;29.70;;;;;;4918810;29;20495;-70
2022/03/13 10:23:02;;;;;;;4.00;3.30;;;32.00;28.80;;;;;;4919081;29;20419;-71
2022/03/13 10:25:29;;;;;;;2.77;2.57;;;32.10;28.00;;;;;;4918369;29;20858;-70
2022/03/13 10:28:20;;;;;;;2.60;2.37;;;32.40;28.50;;;;;;4918774;29;20499;-70
2022/03/13 10:31:15;;;;;;;4.37;3.23;;;32.40;27.60;;;;;;4918688;29;20835;-70
2022/03/13 10:33:44;;;;;;;2.93;2.47;;;32.70;27.80;;;;;;4918514;29;20440;-70
2022/03/13 10:36:15;;;;;;;6.60;4.90;;;33.10;27.80;;;;;;4918406;29;20415;-70
2022/03/13 10:38:42;;;;;;;4.90;3.50;;;33.20;27.30;;;;;;4918357;29;20546;-70
2022/03/13 10:41:09;;;;;;;4.80;2.77;;;33.70;27.60;;;;;;4918469;29;20419;-70
2022/03/13 10:43:49;;;;;;;3.83;2.43;;;34.10;27.20;;;;;;4918706;29;20527;-70
2022/03/13 10:46:26;;;;;;;3.07;2.87;;;34.10;26.60;;;;;;4918665;29;21119;-70
2022/03/13 10:48:52;;;;;;;3.20;2.87;;;33.80;27.00;;;;;;4916974;29;20415;-70
2022/03/13 10:51:32;;;;;;;4.13;3.00;;;34.10;27.20;;;;;;4918355;29;20511;-70
2022/03/13 10:53:58;;;;;;;3.20;3.00;;;34.50;27.00;;;;;;4918154;29;20434;-70
2022/03/13 10:56:31;;;;;;;10.13;3.10;;;34.60;26.60;;;;;;5070835;28;20519;-71
2022/03/13 10:58:58;;;;;;;2.80;2.57;;;34.60;26.50;;;;;;5069926;28;20401;-72
2022/03/13 11:01:25;;;;;;;7.07;3.47;;;34.70;26.60;;;;;;5069870;28;20221;-72
2022/03/13 11:04:06;;;;;;;4.30;2.50;;;34.20;26.30;;;;;;5060950;28;20820;-71
2022/03/13 11:06:32;;;;;;;3.30;3.00;;;34.30;26.70;;;;;;5050940;28;20805;-71
2022/03/13 11:09:00;;;;;;;4.33;2.83;;;34.80;26.70;;;;;;5049740;28;20489;-71
2022/03/13 11:11:27;;;;;;;3.47;2.83;;;35.00;26.40;;;;;;5049824;28;20934;-71
2022/03/13 11:13:59;;;;;;;3.03;2.80;;;35.40;26.90;;;;;;5050888;28;20409;-71
2022/03/13 11:16:25;;;;;;;3.90;3.03;;;35.70;26.40;;;;;;5050067;28;20457;-71
2022/03/13 11:18:53;;;;;;;5.20;2.97;;;36.20;26.40;;;;;;5031568;28;20430;-71
2022/03/13 11:21:20;;;;;;;5.00;3.73;;;36.70;26.40;;;;;;5050833;28;20501;-71
2022/03/13 11:23:46;;;;;;;9.20;2.57;;;37.00;26.00;;;;;;5050811;28;20451;-71
2022/03/13 11:26:15;;;;;;;3.60;3.13;;;37.30;25.80;;;;;;5051067;28;20765;-71
2022/03/13 11:28:44;;;;;;;3.00;2.70;;;36.90;25.60;;;;;;5050821;28;20922;-71
2022/03/13 11:31:49;;;;;;;4.50;3.90;;;37.00;25.50;;;;;;5050725;28;20910;-71
2022/03/13 11:34:20;;;;;;;2.90;2.67;;;37.50;25.60;;;;;;5030980;28;20449;-72
2022/03/13 11:36:49;;;;;;;3.87;3.20;;;37.50;25.60;;;;;;5048133;28;20501;-72
2022/03/13 11:39:30;;;;;;;3.20;2.83;;;37.70;25.70;;;;;;5048959;28;20409;-72
2022/03/13 11:41:56;;;;;;;4.03;2.70;;;38.50;26.00;;;;;;5049718;28;20401;-72
2022/03/13 11:44:22;;;;;;;3.87;3.50;;;39.20;25.30;;;;;;5049333;28;20440;-72
2022/03/13 11:46:53;;;;;;;4.17;3.70;;;39.70;25.20;;;;;;5049651;28;20402;-72
2022/03/13 11:49:37;;;;;;;4.07;3.00;;;40.00;25.20;;;;;;5049237;28;20175;-72
2022/03/13 11:52:11;;;;;;;3.27;2.93;;;40.30;24.80;;;;;;5049569;28;20822;-72
2022/03/13 11:54:57;;;;;;;3.10;2.90;;;40.30;25.10;;;;;;5047297;28;20495;-72
2022/03/13 11:57:27;;;;;;;4.40;3.80;;;40.70;24.70;;;;;;5048246;28;20420;-71
2022/03/13 12:00:13;;;;;;;3.17;2.40;;;41.40;24.70;;;;;;5046987;28;20410;-71
2022/03/13 12:02:41;;;;;;;3.93;3.47;;;42.20;24.30;;;;;;5047354;28;20428;-72
2022/03/13 12:05:25;;;;;;;4.27;2.87;;;42.50;23.80;;;;;;5047792;28;20496;-72
2022/03/13 12:08:05;;;;;;;4.50;2.50;;;42.60;23.70;;;;;;5034182;28;20426;-71
2022/03/13 12:10:42;;;;;;;3.13;2.30;;;42.80;23.70;;;;;;5035502;28;20497;-72
2022/03/13 12:13:11;;;;;;;3.63;3.27;;;43.00;23.30;;;;;;5034475;28;20430;-71
2022/03/13 12:15:39;;;;;;;4.63;4.23;;;42.50;23.30;;;;;;5035522;28;20445;-71
2022/03/13 12:18:23;;;;;;;2.90;2.70;;;41.80;23.30;;;;;;5035254;28;20407;-72
2022/03/13 12:20:50;;;;;;;6.67;4.07;;;41.60;23.50;;;;;;5034993;28;20468;-72
2022/03/13 12:23:31;;;;;;;3.10;2.80;;;41.50;23.30;;;;;;5034955;28;20422;-72
2022/03/13 12:26:18;;;;;;;3.37;3.07;;;41.90;23.50;;;;;;5035449;28;20409;-72
2022/03/13 12:28:46;;;;;;;3.43;3.13;;;42.40;23.10;;;;;;5034491;28;20413;-72
2022/03/13 12:31:12;;;;;;;3.50;3.20;;;42.50;23.30;;;;;;5034770;28;20513;-72
2022/03/13 12:33:43;;;;;;;3.80;3.47;;;43.10;23.40;;;;;;5035087;28;20434;-71
2022/03/13 12:36:09;;;;;;;4.63;3.83;;;43.70;23.00;;;;;;5035210;28;20818;-72
2022/03/13 12:38:34;;;;;;;3.30;2.63;;;44.00;22.70;;;;;;5034925;28;20377;-72
2022/03/13 12:41:04;;;;;;;3.80;3.50;;;44.10;22.90;;;;;;5034949;28;20239;-72
2022/03/13 12:44:01;;;;;;;3.03;2.80;;;44.10;22.50;;;;;;5035003;28;20245;-72
2022/03/13 12:46:29;;;;;;;3.90;3.50;;;43.90;22.80;;;;;;5034993;28;20418;-72
2022/03/13 12:49:00;;;;;;;3.73;3.47;;;44.10;22.70;;;;;;5035332;28;20438;-72
2022/03/13 12:51:42;;;;;;;4.43;3.10;;;44.50;22.50;;;;;;5037229;28;20434;-72
2022/03/13 12:54:21;;;;;;;4.30;3.90;;;45.20;22.70;;;;;;5035188;28;20858;-72
2022/03/13 12:56:50;;;;;;;4.93;3.47;;;45.80;22.50;;;;;;5034903;28;20465;-72